Forside
METAR-TAF:

METAR-TAF

Lufthavne :

Rhinelander-Oneida County Airport

Rhinelander, Wisconsin, USA

Breddekreds: 45-37-54N, længdekreds: 089-28-56W, højde: 495 m

Aktuelle vejr

Denne rapport blev lavet for 42 minutter siden, kl. 16:53 UTC
Vind 5 kt fra vestnordvest
Temperatur 23°C
Fugtighed 57%
Tryk 1019 hPa
Sigt: 9.7 km
skyfri
tåge/dis

METAR: KRHI 031653Z AUTO 30005KT 6SM HZ CLR 23/14 A3010 RMK AO2 SLP190 T02330139

Tid: 12:35 (17:35 UTC)

Vejrudsigter

Denne rapport blev lavet for 1 time og 35 minutter siden, kl. 16:00 UTC
Foreløbig gælder fra 03 på 16 UTC til 04 på 12 UTC
Vind 6 kt fra vest
Sigt: 9.7 km
Spredte skyer i en højde af 7000 ft
tåge/dis
Fra 03 på 1800 UTC
Vind 6 kt fra vestsydvest
Sigt: 10 km
Spredte skyer i en højde af 6000 ft
byger i nærheden
Fra 04 på 0100 UTC
Vind 3 kt fra sydvest
Sigt: 10 km
skyfri
Midlertidig
fra 04 på 07 UTC til 04 på 11 UTC
Sigt: 4.8 km
dis

TAF: KRHI 031600Z 0316/0412 26006KT 6SM HZ SCT070 FM031800 25006KT P6SM VCSH SCT060 FM040100 23003KT P6SM SKC TEMPO 0407/0411 3SM BR

Vejrobservationer og prognoser fra mere end 4000 lufthavne (METAR og TAF).

De gule og røde prikker repræsenterer de meteorologiske stationer.

Flyt musen over at se navnet på stationen.

Så klik over at se vejr observationer og prognoser.

At skifte det kort: Klik på de grønne knapper med et sort kors for at zoome ind; på den grønne knap med en bindestreg for at zoome ud; eller på de grønne pile for tilstødende kort.


METAR-TAF: